createdAt,value
2022-11-27T00:01:35.313Z,113.65
2022-11-27T00:04:04.034Z,118.10
2022-11-27T00:06:33.706Z,114.20
2022-11-27T00:09:04.610Z,115.18
2022-11-27T00:11:33.136Z,108.32
2022-11-27T00:14:02.015Z,117.75
2022-11-27T00:16:30.908Z,113.70
2022-11-27T00:18:59.296Z,118.88
2022-11-27T00:21:32.796Z,112.90
2022-11-27T00:24:03.228Z,121.05
2022-11-27T00:26:37.471Z,102.30
2022-11-27T00:29:07.079Z,107.07
2022-11-27T00:31:38.058Z,97.97
2022-11-27T00:34:09.011Z,104.15
2022-11-27T00:36:38.238Z,124.30
2022-11-27T00:39:07.533Z,114.28
2022-11-27T00:41:35.942Z,116.10
2022-11-27T00:44:04.230Z,124.25
2022-11-27T00:46:34.648Z,120.88
2022-11-27T00:49:05.316Z,103.40
2022-11-27T00:51:35.061Z,109.38
2022-11-27T00:54:02.891Z,112.80
2022-11-27T00:56:33.974Z,110.82
2022-11-27T00:59:03.309Z,127.25
2022-11-27T01:01:34.228Z,103.93
2022-11-27T01:04:03.978Z,112.93
2022-11-27T01:06:32.705Z,110.88
2022-11-27T01:09:01.370Z,117.55
2022-11-27T01:11:31.869Z,111.95
2022-11-27T01:14:10.630Z,122.35
2022-11-27T01:16:43.117Z,99.15
2022-11-27T01:19:13.680Z,100.50
2022-11-27T01:21:42.693Z,101.15
2022-11-27T01:24:11.447Z,96.18
2022-11-27T01:26:43.040Z,106.35
2022-11-27T01:29:11.571Z,96.97
2022-11-27T01:31:39.650Z,112.05
2022-11-27T01:34:10.179Z,106.93
2022-11-27T01:36:38.759Z,101.30
2022-11-27T01:39:07.418Z,96.40
2022-11-27T01:41:37.449Z,116.28
2022-11-27T01:44:25.553Z,101.15
2022-11-27T01:46:59.262Z,107.30
2022-11-27T01:49:32.789Z,94.72
2022-11-27T01:52:05.287Z,92.25
2022-11-27T01:54:41.277Z,93.22
2022-11-27T01:57:20.755Z,93.65
2022-11-27T01:59:49.560Z,96.03
2022-11-27T02:02:18.860Z,91.82
2022-11-27T02:04:46.810Z,89.65
2022-11-27T02:07:15.600Z,92.18
2022-11-27T02:09:44.020Z,94.18
2022-11-27T02:12:25.161Z,89.60
2022-11-27T02:14:56.564Z,99.93
2022-11-27T02:17:33.022Z,91.90
2022-11-27T02:20:04.100Z,95.95
2022-11-27T02:23:00.532Z,99.68
2022-11-27T02:26:07.234Z,116.05
2022-11-27T02:29:00.420Z,101.57
2022-11-27T02:32:19.291Z,107.40
2022-11-27T02:35:00.610Z,104.82
2022-11-27T02:37:37.314Z,103.40
2022-11-27T02:40:14.878Z,103.53
2022-11-27T02:42:46.723Z,110.10
2022-11-27T02:45:18.272Z,124.22
2022-11-27T02:47:47.794Z,121.75
2022-11-27T02:50:21.686Z,127.45
2022-11-27T02:52:51.240Z,123.00
2022-11-27T02:55:24.638Z,121.22
2022-11-27T02:57:54.541Z,125.28
2022-11-27T03:00:23.167Z,121.95
2022-11-27T03:02:55.457Z,128.80
2022-11-27T03:08:18.260Z,119.57
2022-11-27T03:11:09.896Z,128.40
2022-11-27T03:13:54.381Z,132.40
2022-11-27T03:16:51.693Z,120.10
2022-11-27T03:19:25.245Z,123.47
2022-11-27T03:21:58.672Z,132.13
2022-11-27T03:24:28.309Z,145.82
2022-11-27T03:26:59.033Z,135.40
2022-11-27T03:29:28.849Z,136.15
2022-11-27T03:31:58.462Z,144.40
2022-11-27T03:34:26.911Z,161.40
2022-11-27T03:36:56.771Z,146.07
2022-11-27T03:39:25.322Z,149.02
2022-11-27T03:42:15.047Z,152.40
2022-11-27T03:44:58.566Z,141.40
2022-11-27T03:47:34.834Z,147.07
2022-11-27T03:50:02.649Z,165.05
2022-11-27T03:52:43.029Z,148.38
2022-11-27T03:55:28.402Z,156.48
2022-11-27T03:58:07.509Z,153.82
2022-11-27T04:00:37.777Z,155.77
2022-11-27T04:03:10.577Z,150.52
2022-11-27T04:05:39.358Z,160.40
2022-11-27T04:08:07.609Z,157.70
2022-11-27T04:10:36.110Z,159.82
2022-11-27T04:13:04.197Z,162.57
2022-11-27T04:15:32.597Z,159.07
2022-11-27T04:18:01.299Z,163.43
2022-11-27T04:20:29.918Z,162.25
2022-11-27T04:22:58.815Z,162.63
2022-11-27T04:25:27.653Z,173.55
2022-11-27T04:27:56.542Z,154.93
2022-11-27T04:30:24.785Z,157.48
2022-11-27T04:32:53.331Z,158.85
2022-11-27T04:35:21.111Z,145.38
2022-11-27T04:37:49.720Z,164.73
2022-11-27T04:40:17.604Z,166.38
2022-11-27T04:42:46.067Z,152.40
2022-11-27T04:45:14.852Z,159.38
2022-11-27T04:47:42.808Z,159.02
2022-11-27T04:50:11.398Z,154.85
2022-11-27T04:52:39.832Z,151.82
2022-11-27T04:55:07.964Z,166.85
2022-11-27T04:57:37.273Z,167.80
2022-11-27T05:00:06.061Z,159.65
2022-11-27T05:02:34.851Z,162.20
2022-11-27T05:05:03.277Z,187.27
2022-11-27T05:07:31.402Z,173.30
2022-11-27T05:09:59.560Z,155.30
2022-11-27T05:12:27.654Z,167.30
2022-11-27T05:14:55.291Z,160.65
2022-11-27T05:17:23.756Z,158.25
2022-11-27T05:19:51.589Z,164.68
2022-11-27T05:22:20.326Z,163.43
2022-11-27T05:24:48.217Z,165.38
2022-11-27T05:27:16.762Z,163.00
2022-11-27T05:29:45.367Z,162.10
2022-11-27T05:32:57.271Z,164.80
2022-11-27T05:35:25.352Z,154.93
2022-11-27T05:37:53.940Z,160.27
2022-11-27T05:40:21.890Z,148.57
2022-11-27T05:42:50.372Z,168.60
2022-11-27T05:45:18.405Z,158.48
2022-11-27T05:47:47.351Z,167.85
2022-11-27T05:50:15.111Z,172.38
2022-11-27T05:52:43.751Z,161.73
2022-11-27T05:55:11.619Z,155.52
2022-11-27T05:57:40.029Z,136.73
2022-11-27T06:00:09.159Z,150.52
2022-11-27T06:02:37.581Z,157.52
2022-11-27T06:05:06.190Z,161.73
2022-11-27T06:07:34.712Z,189.35
2022-11-27T06:10:02.601Z,167.88
2022-11-27T06:12:32.450Z,170.13
2022-11-27T06:15:01.970Z,161.05
2022-11-27T06:17:30.439Z,178.50
2022-11-27T06:19:58.342Z,180.35
2022-11-27T06:22:27.211Z,175.50
2022-11-27T06:24:55.114Z,163.43
2022-11-27T06:27:23.841Z,176.38
2022-11-27T06:29:51.632Z,176.48
2022-11-27T06:32:19.966Z,171.48
2022-11-27T06:34:47.874Z,180.05
2022-11-27T06:37:16.485Z,178.73
2022-11-27T06:39:44.290Z,180.02
2022-11-27T06:42:13.060Z,191.80
2022-11-27T06:44:41.181Z,181.00
2022-11-27T06:47:10.211Z,171.20
2022-11-27T06:49:38.174Z,174.15
2022-11-27T06:52:06.565Z,162.32
2022-11-27T06:54:34.352Z,164.85
2022-11-27T06:57:02.842Z,190.25
2022-11-27T06:59:30.761Z,165.60
2022-11-27T07:01:59.155Z,172.68
2022-11-27T07:04:27.030Z,160.35
2022-11-27T07:06:55.526Z,172.98
2022-11-27T07:09:23.430Z,175.65
2022-11-27T07:11:51.901Z,173.27
2022-11-27T07:14:20.053Z,169.15
2022-11-27T07:16:48.440Z,157.15
2022-11-27T07:19:16.773Z,159.85
2022-11-27T07:21:44.850Z,156.93
2022-11-27T07:24:13.267Z,165.07
2022-11-27T07:26:41.363Z,179.13
2022-11-27T07:29:09.750Z,166.75
2022-11-27T07:31:38.400Z,165.80
2022-11-27T07:34:11.696Z,151.95
2022-11-27T07:36:42.832Z,164.35
2022-11-27T07:39:11.176Z,151.93
2022-11-27T07:41:39.064Z,158.20
2022-11-27T07:44:07.701Z,157.65
2022-11-27T07:46:36.645Z,158.68
2022-11-27T07:49:04.500Z,148.75
2022-11-27T07:51:32.787Z,169.02
2022-11-27T07:54:00.653Z,161.95
2022-11-27T07:56:29.031Z,154.80
2022-11-27T07:58:58.626Z,154.60
2022-11-27T08:01:26.971Z,147.82
2022-11-27T08:03:55.179Z,156.77
2022-11-27T08:06:25.771Z,149.20
2022-11-27T08:08:56.194Z,148.50
2022-11-27T08:11:30.027Z,155.85
2022-11-27T08:14:00.445Z,144.80
2022-11-27T08:16:29.317Z,158.75
2022-11-27T08:18:58.097Z,156.25
2022-11-27T08:21:27.757Z,162.68
2022-11-27T08:23:57.111Z,164.93
2022-11-27T08:26:27.785Z,177.38
2022-11-27T08:28:56.621Z,144.98
2022-11-27T08:31:25.294Z,167.68
2022-11-27T08:33:53.301Z,149.13
2022-11-27T08:36:23.078Z,167.55
2022-11-27T08:38:51.142Z,159.32
2022-11-27T08:41:19.724Z,165.82
2022-11-27T08:43:47.662Z,157.55
2022-11-27T08:46:16.353Z,170.45
2022-11-27T08:48:44.831Z,157.20
2022-11-27T08:51:15.020Z,149.88
2022-11-27T08:53:46.001Z,161.65
2022-11-27T08:56:20.094Z,161.77
2022-11-27T08:58:48.431Z,161.98
2022-11-27T09:01:19.391Z,148.45
2022-11-27T09:03:48.123Z,151.40
2022-11-27T09:06:23.583Z,150.75
2022-11-27T09:08:53.064Z,142.35
2022-11-27T09:11:21.590Z,141.63
2022-11-27T09:13:49.842Z,138.63
2022-11-27T09:16:20.216Z,156.20
2022-11-27T09:18:50.698Z,137.13
2022-11-27T09:21:21.012Z,148.52
2022-11-27T09:23:48.825Z,152.20
2022-11-27T09:26:18.618Z,143.35
2022-11-27T09:28:46.531Z,150.10
2022-11-27T09:31:16.000Z,155.43
2022-11-27T09:33:44.558Z,138.73
2022-11-27T09:36:15.523Z,139.50
2022-11-27T09:38:43.823Z,139.57
2022-11-27T09:41:14.530Z,137.60
2022-11-27T09:43:52.078Z,138.15
2022-11-27T09:46:46.585Z,148.05
2022-11-27T09:49:20.795Z,133.10
2022-11-27T09:51:57.949Z,141.60
2022-11-27T09:54:52.255Z,130.73
2022-11-27T09:57:27.917Z,145.30
2022-11-27T09:59:56.300Z,140.30
2022-11-27T10:02:29.655Z,135.32
2022-11-27T10:05:15.874Z,135.70
2022-11-27T10:08:22.120Z,133.38
2022-11-27T10:11:11.691Z,137.10
2022-11-27T10:13:52.139Z,122.35
2022-11-27T10:16:31.238Z,129.43
2022-11-27T10:19:17.647Z,132.68
2022-11-27T10:21:52.148Z,129.68
2022-11-27T10:24:39.308Z,129.27
2022-11-27T10:27:22.054Z,129.35
2022-11-27T10:29:57.085Z,127.07
2022-11-27T10:32:54.501Z,123.90
2022-11-27T10:35:24.758Z,119.32
2022-11-27T10:38:06.435Z,135.60
2022-11-27T10:40:41.583Z,116.10
2022-11-27T10:43:35.964Z,129.80
2022-11-27T10:46:33.136Z,131.15
2022-11-27T10:49:01.137Z,117.25
2022-11-27T10:51:32.787Z,113.53
2022-11-27T10:54:02.112Z,125.05
2022-11-27T10:57:07.775Z,118.80
2022-11-27T10:59:43.000Z,122.55
2022-11-27T11:02:34.422Z,120.05
2022-11-27T11:05:40.908Z,116.15
2022-11-27T11:08:21.067Z,119.82
2022-11-27T11:10:59.286Z,114.75
2022-11-27T11:13:29.529Z,118.05
2022-11-27T11:16:04.635Z,116.20
2022-11-27T11:18:36.129Z,121.80
2022-11-27T11:21:07.782Z,118.40
2022-11-27T11:23:39.786Z,120.25
2022-11-27T11:26:24.020Z,121.18
2022-11-27T11:28:54.994Z,103.22
2022-11-27T11:31:29.793Z,103.55
2022-11-27T11:34:21.502Z,117.15
2022-11-27T11:37:01.666Z,116.43
2022-11-27T11:39:35.639Z,106.43
2022-11-27T11:42:10.542Z,105.63
2022-11-27T11:44:41.153Z,105.35
2022-11-27T11:47:17.545Z,107.38
2022-11-27T11:49:46.712Z,109.60
2022-11-27T11:52:14.956Z,108.97
2022-11-27T11:55:07.477Z,108.20
2022-11-27T11:57:57.519Z,116.72
2022-11-27T12:00:31.566Z,115.80
2022-11-27T12:03:23.703Z,102.20
2022-11-27T12:06:27.880Z,107.85
2022-11-27T12:09:23.893Z,107.65
2022-11-27T12:11:54.782Z,115.25
2022-11-27T12:14:43.996Z,114.22
2022-11-27T12:17:30.617Z,102.05
2022-11-27T12:20:09.967Z,103.88
2022-11-27T12:22:44.590Z,116.90
2022-11-27T12:25:34.026Z,101.32
2022-11-27T12:28:11.463Z,102.80
2022-11-27T12:30:48.246Z,107.47
2022-11-27T12:33:44.581Z,108.85
2022-11-27T12:36:31.713Z,111.40
2022-11-27T12:39:18.274Z,109.85
2022-11-27T12:42:04.848Z,106.03
2022-11-27T12:45:02.742Z,93.43
2022-11-27T12:47:47.300Z,98.47
2022-11-27T12:50:27.737Z,113.00
2022-11-27T12:53:26.933Z,109.50
2022-11-27T12:56:01.366Z,105.25
2022-11-27T12:58:33.304Z,104.97
2022-11-27T13:01:08.570Z,78.38
2022-11-27T13:03:40.086Z,101.03
2022-11-27T13:06:15.544Z,105.93
2022-11-27T13:08:52.282Z,106.18
2022-11-27T13:11:24.737Z,113.70
2022-11-27T13:14:04.275Z,104.05
2022-11-27T13:16:35.527Z,113.15
2022-11-27T13:19:21.885Z,99.15
2022-11-27T13:21:51.499Z,107.55
2022-11-27T13:24:26.663Z,116.55
2022-11-27T13:27:17.716Z,102.90
2022-11-27T13:30:10.229Z,104.07
2022-11-27T13:32:41.390Z,95.13
2022-11-27T13:35:31.278Z,101.40
2022-11-27T13:38:10.824Z,97.80
2022-11-27T13:40:42.704Z,102.72
2022-11-27T13:43:34.600Z,101.93
2022-11-27T13:46:08.656Z,91.75
2022-11-27T13:48:42.816Z,102.32
2022-11-27T13:51:12.428Z,102.38
2022-11-27T13:53:43.118Z,105.75
2022-11-27T13:56:10.782Z,102.05
2022-11-27T13:58:41.473Z,106.35
2022-11-27T14:01:15.615Z,106.25
2022-11-27T14:03:44.961Z,101.50
2022-11-27T14:06:28.567Z,100.93
2022-11-27T14:09:05.753Z,108.70
2022-11-27T14:11:47.849Z,99.65
2022-11-27T14:14:20.085Z,103.13
2022-11-27T14:17:03.025Z,103.30
2022-11-27T14:19:46.913Z,102.03
2022-11-27T14:23:11.695Z,104.45
2022-11-27T14:25:41.395Z,97.18
2022-11-27T14:28:28.106Z,107.38
2022-11-27T14:30:59.619Z,103.63
2022-11-27T14:33:59.526Z,95.32
2022-11-27T14:36:31.198Z,109.43
2022-11-27T14:38:59.184Z,102.30
2022-11-27T14:41:28.606Z,107.32
2022-11-27T14:44:05.232Z,107.10
2022-11-27T14:46:36.023Z,108.53
2022-11-27T14:49:04.538Z,111.07
2022-11-27T14:51:37.877Z,111.35
2022-11-27T14:56:46.360Z,107.78
2022-11-27T14:59:20.842Z,105.10
2022-11-27T15:02:04.242Z,116.60
2022-11-27T15:04:37.752Z,118.60
2022-11-27T15:07:11.354Z,113.35
2022-11-27T15:09:47.400Z,111.88
2022-11-27T15:12:21.481Z,124.75
2022-11-27T15:15:09.233Z,112.20
2022-11-27T15:17:39.538Z,101.97
2022-11-27T15:20:15.755Z,110.13
2022-11-27T15:22:58.226Z,110.95
2022-11-27T15:25:40.217Z,116.32
2022-11-27T15:28:34.432Z,114.55
2022-11-27T15:31:03.487Z,118.55
2022-11-27T15:33:34.121Z,108.25
2022-11-27T15:36:21.192Z,109.72
2022-11-27T15:38:52.754Z,112.50
2022-11-27T15:41:23.681Z,117.63
2022-11-27T15:43:53.120Z,117.97
2022-11-27T15:46:30.672Z,123.50
2022-11-27T15:48:59.309Z,108.60
2022-11-27T15:51:27.387Z,130.50
2022-11-27T15:53:56.068Z,127.82
2022-11-27T15:56:24.220Z,136.85
2022-11-27T15:58:52.923Z,124.75
2022-11-27T16:01:21.575Z,131.50
2022-11-27T16:03:50.301Z,130.00
2022-11-27T16:06:21.192Z,121.32
2022-11-27T16:08:57.639Z,126.78
2022-11-27T16:11:27.512Z,124.57
2022-11-27T16:13:57.085Z,122.18
2022-11-27T16:16:26.097Z,132.57
2022-11-27T16:19:02.862Z,148.13
2022-11-27T16:21:32.007Z,141.48
2022-11-27T16:24:04.862Z,128.68
2022-11-27T16:26:33.319Z,138.85
2022-11-27T16:29:02.535Z,120.55
2022-11-27T16:31:30.767Z,117.30
2022-11-27T16:34:02.021Z,133.93
2022-11-27T16:36:29.996Z,119.35
2022-11-27T16:38:58.422Z,126.72
2022-11-27T16:41:27.069Z,131.15
2022-11-27T16:43:58.015Z,145.68
2022-11-27T16:46:29.056Z,127.68
2022-11-27T16:49:00.451Z,129.45
2022-11-27T16:51:34.069Z,142.70
2022-11-27T16:54:05.497Z,147.18
2022-11-27T16:56:36.111Z,145.07
2022-11-27T16:59:12.366Z,162.05
2022-11-27T17:01:41.896Z,188.15
2022-11-27T17:04:17.032Z,229.60
2022-11-27T17:06:46.117Z,167.75
2022-11-27T17:09:15.313Z,155.07
2022-11-27T17:11:48.968Z,167.80
2022-11-27T17:14:20.636Z,162.55
2022-11-27T17:16:49.827Z,155.52
2022-11-27T17:19:19.392Z,155.38
2022-11-27T17:21:48.480Z,161.82
2022-11-27T17:24:18.219Z,164.70
2022-11-27T17:26:48.177Z,162.65
2022-11-27T17:29:19.569Z,154.93
2022-11-27T17:31:51.335Z,160.70
2022-11-27T17:34:20.938Z,169.00
2022-11-27T17:36:57.678Z,161.68
2022-11-27T17:39:26.218Z,161.25
2022-11-27T17:41:54.174Z,156.98
2022-11-27T17:44:22.843Z,166.73
2022-11-27T17:46:51.270Z,149.18
2022-11-27T17:49:22.151Z,155.65
2022-11-27T17:51:51.654Z,155.43
2022-11-27T17:54:21.358Z,147.50
2022-11-27T17:56:52.007Z,160.40
2022-11-27T17:59:21.041Z,149.98
2022-11-27T18:01:51.532Z,156.00
2022-11-27T18:04:21.248Z,156.45
2022-11-27T18:06:49.585Z,153.80
2022-11-27T18:09:18.738Z,150.07
2022-11-27T18:11:48.094Z,147.38
2022-11-27T18:14:17.532Z,165.00
2022-11-27T18:16:45.718Z,178.27
2022-11-27T18:19:14.264Z,178.52
2022-11-27T18:21:42.501Z,185.60
2022-11-27T18:24:26.139Z,174.30
2022-11-27T18:27:10.536Z,157.57
2022-11-27T18:29:41.993Z,154.00
2022-11-27T18:32:12.189Z,149.80
2022-11-27T18:34:41.578Z,157.30
2022-11-27T18:37:10.691Z,403.30
2022-11-27T18:39:40.703Z,256.08
2022-11-27T18:42:09.121Z,421.92
2022-11-27T18:44:44.398Z,214.25
2022-11-27T18:47:15.119Z,175.23
2022-11-27T18:49:45.696Z,155.70
2022-11-27T18:52:14.406Z,161.27
2022-11-27T18:54:44.579Z,153.88
2022-11-27T18:57:14.118Z,163.60
2022-11-27T18:59:45.433Z,152.77
2022-11-27T19:02:13.946Z,145.65
2022-11-27T19:04:44.894Z,147.95
2022-11-27T19:07:13.650Z,160.57
2022-11-27T19:09:42.317Z,151.07
2022-11-27T19:12:10.841Z,161.73
2022-11-27T19:14:40.641Z,149.18
2022-11-27T19:17:09.889Z,153.38
2022-11-27T19:19:55.032Z,150.80
2022-11-27T19:22:23.209Z,157.82
2022-11-27T19:24:51.717Z,156.45
2022-11-27T19:27:19.504Z,181.32
2022-11-27T19:29:49.512Z,189.88
2022-11-27T19:32:18.528Z,241.43
2022-11-27T19:34:47.233Z,214.93
2022-11-27T19:37:14.989Z,172.82
2022-11-27T19:39:43.487Z,168.95
2022-11-27T19:42:11.771Z,174.10
2022-11-27T19:44:40.710Z,173.35
2022-11-27T19:47:10.269Z,168.35
2022-11-27T19:49:39.374Z,162.65
2022-11-27T19:52:10.459Z,161.20
2022-11-27T19:54:39.575Z,152.60
2022-11-27T19:57:08.817Z,153.95
2022-11-27T19:59:38.442Z,158.60
2022-11-27T20:02:09.790Z,152.25
2022-11-27T20:04:38.754Z,149.32
2022-11-27T20:07:08.537Z,149.13
2022-11-27T20:09:37.193Z,154.18
2022-11-27T20:12:06.006Z,155.25
2022-11-27T20:14:35.954Z,150.00
2022-11-27T20:17:04.314Z,154.15
2022-11-27T20:19:33.987Z,152.13
2022-11-27T20:22:02.727Z,150.25
2022-11-27T20:24:32.378Z,144.48
2022-11-27T20:27:01.213Z,155.02
2022-11-27T20:29:29.778Z,147.30
2022-11-27T20:32:00.615Z,150.45
2022-11-27T20:34:32.733Z,158.98
2022-11-27T20:37:00.955Z,151.80
2022-11-27T20:39:29.764Z,156.13
2022-11-27T20:41:58.555Z,148.93
2022-11-27T20:44:28.229Z,149.63
2022-11-27T20:46:56.538Z,158.18
2022-11-27T20:49:25.919Z,152.75
2022-11-27T20:51:55.587Z,150.77
2022-11-27T20:54:24.726Z,143.57
2022-11-27T20:56:52.703Z,153.95
2022-11-27T20:59:22.717Z,150.63
2022-11-27T21:01:51.746Z,154.88
2022-11-27T21:04:25.401Z,156.60
2022-11-27T21:06:54.640Z,156.95
2022-11-27T21:09:24.096Z,159.30
2022-11-27T21:11:52.081Z,167.02
2022-11-27T21:14:20.677Z,150.18
2022-11-27T21:16:51.193Z,155.73
2022-11-27T21:19:21.807Z,146.73
2022-11-27T21:21:51.987Z,149.20
2022-11-27T21:24:21.636Z,145.20
2022-11-27T21:26:50.608Z,134.73
2022-11-27T21:29:18.952Z,153.20
2022-11-27T21:31:48.214Z,139.70
2022-11-27T21:34:17.166Z,149.18
2022-11-27T21:36:45.363Z,162.02
2022-11-27T21:39:20.746Z,157.90
2022-11-27T21:41:50.506Z,154.90
2022-11-27T21:44:21.298Z,155.20
2022-11-27T21:46:50.324Z,156.32
2022-11-27T21:49:21.300Z,150.20
2022-11-27T21:51:53.850Z,152.27
2022-11-27T21:54:29.608Z,156.85
2022-11-27T21:56:57.432Z,139.10
2022-11-27T21:59:25.962Z,142.13
2022-11-27T22:01:53.835Z,125.20
2022-11-27T22:04:22.373Z,129.48
2022-11-27T22:06:53.116Z,130.30
2022-11-27T22:09:21.663Z,123.20
2022-11-27T22:11:49.586Z,137.68
2022-11-27T22:14:17.400Z,134.07
2022-11-27T22:16:46.964Z,144.95
2022-11-27T22:19:16.790Z,151.50
2022-11-27T22:21:45.422Z,145.15
2022-11-27T22:24:18.914Z,166.13
2022-11-27T22:26:51.576Z,158.38
2022-11-27T22:29:19.896Z,152.73
2022-11-27T22:31:47.625Z,157.13
2022-11-27T22:34:16.851Z,152.68
2022-11-27T22:36:45.353Z,176.73
2022-11-27T22:39:14.924Z,183.48
2022-11-27T22:41:43.556Z,182.88
2022-11-27T22:44:16.227Z,187.93
2022-11-27T22:46:44.981Z,196.93
2022-11-27T22:49:16.251Z,198.90
2022-11-27T22:51:45.437Z,203.35
2022-11-27T22:54:17.449Z,218.02
2022-11-27T22:56:46.862Z,204.23
2022-11-27T22:59:32.829Z,205.88
2022-11-27T23:02:03.216Z,197.25
2022-11-27T23:04:32.107Z,184.07
2022-11-27T23:07:00.181Z,196.95
2022-11-27T23:09:30.117Z,179.65
2022-11-27T23:11:58.863Z,190.43
2022-11-27T23:14:27.441Z,193.68
2022-11-27T23:16:56.187Z,197.05
2022-11-27T23:19:24.756Z,184.07
2022-11-27T23:21:52.511Z,204.23
2022-11-27T23:24:20.454Z,208.30
2022-11-27T23:26:48.786Z,202.65
2022-11-27T23:29:16.862Z,206.57
2022-11-27T23:31:45.216Z,214.13
2022-11-27T23:34:16.201Z,225.38
2022-11-27T23:36:44.546Z,207.98
2022-11-27T23:39:13.646Z,200.05
2022-11-27T23:41:41.967Z,210.38
2022-11-27T23:44:10.654Z,221.68
2022-11-27T23:46:38.376Z,217.88
2022-11-27T23:49:06.512Z,209.45
2022-11-27T23:51:34.784Z,210.25
2022-11-27T23:54:08.585Z,205.27
2022-11-27T23:56:37.544Z,236.65
2022-11-27T23:59:06.203Z,216.07
